sensor_id;sensor_type;location;lat;lon;timestamp;temperature;humidity
45233;DHT22;30969;51.052;17.056;2022-07-29T00:01:18;22.30;32.70
45233;DHT22;30969;51.052;17.056;2022-07-29T00:06:21;22.20;32.70
45233;DHT22;30969;51.052;17.056;2022-07-29T00:11:25;22.10;32.50
45233;DHT22;30969;51.052;17.056;2022-07-29T00:16:30;22.10;32.80
45233;DHT22;30969;51.052;17.056;2022-07-29T00:21:33;22.10;32.50
45233;DHT22;30969;51.052;17.056;2022-07-29T00:26:37;22.00;32.80
45233;DHT22;30969;51.052;17.056;2022-07-29T00:31:41;22.00;34.10
45233;DHT22;30969;51.052;17.056;2022-07-29T00:36:45;21.90;34.10
45233;DHT22;30969;51.052;17.056;2022-07-29T00:41:48;21.80;33.90
45233;DHT22;30969;51.052;17.056;2022-07-29T00:46:53;21.70;34.90
45233;DHT22;30969;51.052;17.056;2022-07-29T00:57:28;21.60;34.50
45233;DHT22;30969;51.052;17.056;2022-07-29T01:02:33;21.60;34.30
45233;DHT22;30969;51.052;17.056;2022-07-29T01:07:36;21.50;34.80
45233;DHT22;30969;51.052;17.056;2022-07-29T01:12:40;21.50;34.80
45233;DHT22;30969;51.052;17.056;2022-07-29T01:17:50;21.40;34.60
45233;DHT22;30969;51.052;17.056;2022-07-29T01:23:11;21.40;35.00
45233;DHT22;30969;51.052;17.056;2022-07-29T01:28:38;21.40;35.80
45233;DHT22;30969;51.052;17.056;2022-07-29T01:33:45;21.30;35.60
45233;DHT22;30969;51.052;17.056;2022-07-29T01:38:58;21.20;35.50
45233;DHT22;30969;51.052;17.056;2022-07-29T01:44:12;21.20;35.90
45233;DHT22;30969;51.052;17.056;2022-07-29T01:49:21;21.10;36.00
45233;DHT22;30969;51.052;17.056;2022-07-29T01:54:32;21.10;36.90
45233;DHT22;30969;51.052;17.056;2022-07-29T01:59:40;21.00;36.50
45233;DHT22;30969;51.052;17.056;2022-07-29T02:04:46;21.00;36.80
45233;DHT22;30969;51.052;17.056;2022-07-29T02:09:52;20.90;37.10
45233;DHT22;30969;51.052;17.056;2022-07-29T02:15:00;20.90;36.70
45233;DHT22;30969;51.052;17.056;2022-07-29T02:20:05;20.80;36.90
45233;DHT22;30969;51.052;17.056;2022-07-29T02:25:10;20.80;37.20
45233;DHT22;30969;51.052;17.056;2022-07-29T02:30:17;20.80;37.70
45233;DHT22;30969;51.052;17.056;2022-07-29T02:35:22;20.80;37.70
45233;DHT22;30969;51.052;17.056;2022-07-29T02:40:26;20.70;38.00
45233;DHT22;30969;51.052;17.056;2022-07-29T02:45:31;20.70;38.20
45233;DHT22;30969;51.052;17.056;2022-07-29T02:50:39;20.60;39.10
45233;DHT22;30969;51.052;17.056;2022-07-29T02:55:48;20.50;39.50
45233;DHT22;30969;51.052;17.056;2022-07-29T03:00:56;20.40;39.70
45233;DHT22;30969;51.052;17.056;2022-07-29T03:06:02;20.30;40.20
45233;DHT22;30969;51.052;17.056;2022-07-29T03:11:08;20.20;39.90
45233;DHT22;30969;51.052;17.056;2022-07-29T03:16:13;20.10;40.10
45233;DHT22;30969;51.052;17.056;2022-07-29T03:21:17;20.10;40.40
45233;DHT22;30969;51.052;17.056;2022-07-29T03:26:21;20.10;40.20
45233;DHT22;30969;51.052;17.056;2022-07-29T03:31:26;20.10;40.50
45233;DHT22;30969;51.052;17.056;2022-07-29T03:36:30;20.00;40.20
45233;DHT22;30969;51.052;17.056;2022-07-29T03:41:34;20.00;40.90
45233;DHT22;30969;51.052;17.056;2022-07-29T03:46:41;20.00;40.60
45233;DHT22;30969;51.052;17.056;2022-07-29T03:51:46;20.00;41.10
45233;DHT22;30969;51.052;17.056;2022-07-29T03:56:52;20.00;41.30
45233;DHT22;30969;51.052;17.056;2022-07-29T04:01:59;20.00;40.80
45233;DHT22;30969;51.052;17.056;2022-07-29T04:07:04;20.00;42.70
45233;DHT22;30969;51.052;17.056;2022-07-29T04:12:08;20.00;41.30
45233;DHT22;30969;51.052;17.056;2022-07-29T04:17:14;20.00;42.20
45233;DHT22;30969;51.052;17.056;2022-07-29T04:22:17;20.00;42.60
45233;DHT22;30969;51.052;17.056;2022-07-29T04:27:21;20.00;42.00
45233;DHT22;30969;51.052;17.056;2022-07-29T04:32:28;20.00;42.30
45233;DHT22;30969;51.052;17.056;2022-07-29T04:37:32;20.00;42.70
45233;DHT22;30969;51.052;17.056;2022-07-29T04:42:38;20.10;42.40
45233;DHT22;30969;51.052;17.056;2022-07-29T04:47:49;20.10;42.50
45233;DHT22;30969;51.052;17.056;2022-07-29T04:52:54;20.20;42.60
45233;DHT22;30969;51.052;17.056;2022-07-29T04:57:57;20.30;42.50
45233;DHT22;30969;51.052;17.056;2022-07-29T05:03:03;20.40;42.80
45233;DHT22;30969;51.052;17.056;2022-07-29T05:08:07;20.50;42.60
45233;DHT22;30969;51.052;17.056;2022-07-29T05:13:10;20.60;42.60
45233;DHT22;30969;51.052;17.056;2022-07-29T05:18:15;20.70;42.30
45233;DHT22;30969;51.052;17.056;2022-07-29T05:23:19;20.70;42.30
45233;DHT22;30969;51.052;17.056;2022-07-29T05:28:22;20.80;42.20
45233;DHT22;30969;51.052;17.056;2022-07-29T05:33:27;20.90;42.50
45233;DHT22;30969;51.052;17.056;2022-07-29T05:38:37;21.00;42.50
45233;DHT22;30969;51.052;17.056;2022-07-29T05:43:41;21.00;43.20
45233;DHT22;30969;51.052;17.056;2022-07-29T05:48:46;21.10;42.90
45233;DHT22;30969;51.052;17.056;2022-07-29T05:53:49;21.10;43.10
45233;DHT22;30969;51.052;17.056;2022-07-29T05:58:52;21.20;42.40
45233;DHT22;30969;51.052;17.056;2022-07-29T06:03:57;21.30;42.50
45233;DHT22;30969;51.052;17.056;2022-07-29T06:09:01;21.40;42.10
45233;DHT22;30969;51.052;17.056;2022-07-29T06:14:13;21.40;42.50
45233;DHT22;30969;51.052;17.056;2022-07-29T06:19:19;21.50;42.40
45233;DHT22;30969;51.052;17.056;2022-07-29T06:24:22;21.50;42.60
45233;DHT22;30969;51.052;17.056;2022-07-29T06:29:26;21.60;42.50
45233;DHT22;30969;51.052;17.056;2022-07-29T06:34:31;21.60;42.50
45233;DHT22;30969;51.052;17.056;2022-07-29T06:39:35;21.80;42.40
45233;DHT22;30969;51.052;17.056;2022-07-29T06:44:40;21.90;42.10
45233;DHT22;30969;51.052;17.056;2022-07-29T06:49:45;22.00;41.80
45233;DHT22;30969;51.052;17.056;2022-07-29T06:54:48;22.10;41.40
45233;DHT22;30969;51.052;17.056;2022-07-29T06:59:52;22.20;41.20
45233;DHT22;30969;51.052;17.056;2022-07-29T07:04:57;22.40;41.00
45233;DHT22;30969;51.052;17.056;2022-07-29T07:10:00;22.50;40.60
45233;DHT22;30969;51.052;17.056;2022-07-29T07:15:05;22.60;40.50
45233;DHT22;30969;51.052;17.056;2022-07-29T07:20:10;22.70;40.20
45233;DHT22;30969;51.052;17.056;2022-07-29T07:25:14;22.90;40.20
45233;DHT22;30969;51.052;17.056;2022-07-29T07:30:19;23.10;40.00
45233;DHT22;30969;51.052;17.056;2022-07-29T07:35:25;23.20;39.90
45233;DHT22;30969;51.052;17.056;2022-07-29T07:40:29;23.30;39.60
45233;DHT22;30969;51.052;17.056;2022-07-29T07:45:33;23.50;39.50
45233;DHT22;30969;51.052;17.056;2022-07-29T07:50:40;23.60;39.30
45233;DHT22;30969;51.052;17.056;2022-07-29T07:55:45;23.80;39.30
45233;DHT22;30969;51.052;17.056;2022-07-29T08:01:09;23.90;39.20
45233;DHT22;30969;51.052;17.056;2022-07-29T08:06:17;24.00;39.00
45233;DHT22;30969;51.052;17.056;2022-07-29T08:11:21;24.20;38.80
45233;DHT22;30969;51.052;17.056;2022-07-29T08:16:24;24.30;38.70
45233;DHT22;30969;51.052;17.056;2022-07-29T08:21:29;24.40;38.50
45233;DHT22;30969;51.052;17.056;2022-07-29T08:26:33;24.50;38.50
45233;DHT22;30969;51.052;17.056;2022-07-29T08:31:37;24.60;38.50
45233;DHT22;30969;51.052;17.056;2022-07-29T08:36:42;24.80;38.40
45233;DHT22;30969;51.052;17.056;2022-07-29T08:41:51;24.90;38.20
45233;DHT22;30969;51.052;17.056;2022-07-29T08:47:03;25.00;37.90
45233;DHT22;30969;51.052;17.056;2022-07-29T08:52:10;25.10;37.90
45233;DHT22;30969;51.052;17.056;2022-07-29T08:57:14;25.20;37.60
45233;DHT22;30969;51.052;17.056;2022-07-29T09:02:19;25.30;37.60
45233;DHT22;30969;51.052;17.056;2022-07-29T09:07:24;25.40;37.40
45233;DHT22;30969;51.052;17.056;2022-07-29T09:12:35;25.60;37.40
45233;DHT22;30969;51.052;17.056;2022-07-29T09:17:40;25.70;37.40
45233;DHT22;30969;51.052;17.056;2022-07-29T09:22:46;25.90;37.60
45233;DHT22;30969;51.052;17.056;2022-07-29T09:27:51;26.00;37.00
45233;DHT22;30969;51.052;17.056;2022-07-29T09:32:56;26.20;36.60
45233;DHT22;30969;51.052;17.056;2022-07-29T09:38:11;26.40;36.70
45233;DHT22;30969;51.052;17.056;2022-07-29T09:43:14;26.50;36.20
45233;DHT22;30969;51.052;17.056;2022-07-29T09:48:20;26.60;36.00
45233;DHT22;30969;51.052;17.056;2022-07-29T09:53:32;26.70;36.10
45233;DHT22;30969;51.052;17.056;2022-07-29T09:58:36;26.80;35.90
45233;DHT22;30969;51.052;17.056;2022-07-29T10:03:50;26.90;35.90
45233;DHT22;30969;51.052;17.056;2022-07-29T10:09:07;27.00;35.50
45233;DHT22;30969;51.052;17.056;2022-07-29T10:14:10;27.00;35.40
45233;DHT22;30969;51.052;17.056;2022-07-29T10:19:14;27.10;35.40
45233;DHT22;30969;51.052;17.056;2022-07-29T10:24:19;27.20;35.40
45233;DHT22;30969;51.052;17.056;2022-07-29T10:29:24;27.20;35.00
45233;DHT22;30969;51.052;17.056;2022-07-29T10:34:36;27.30;35.00
45233;DHT22;30969;51.052;17.056;2022-07-29T10:39:57;27.30;34.80
45233;DHT22;30969;51.052;17.056;2022-07-29T10:45:04;27.30;35.10
45233;DHT22;30969;51.052;17.056;2022-07-29T10:50:08;27.40;34.90
45233;DHT22;30969;51.052;17.056;2022-07-29T10:55:35;27.50;34.60
45233;DHT22;30969;51.052;17.056;2022-07-29T11:00:45;27.60;34.90
45233;DHT22;30969;51.052;17.056;2022-07-29T11:05:55;27.70;35.00
45233;DHT22;30969;51.052;17.056;2022-07-29T11:11:35;27.80;34.20
45233;DHT22;30969;51.052;17.056;2022-07-29T11:16:59;27.90;34.10
45233;DHT22;30969;51.052;17.056;2022-07-29T11:22:08;28.00;34.00
45233;DHT22;30969;51.052;17.056;2022-07-29T11:27:19;28.10;33.70
45233;DHT22;30969;51.052;17.056;2022-07-29T11:32:25;28.20;33.40
45233;DHT22;30969;51.052;17.056;2022-07-29T11:37:38;28.30;33.20
45233;DHT22;30969;51.052;17.056;2022-07-29T11:42:49;28.40;32.70
45233;DHT22;30969;51.052;17.056;2022-07-29T11:48:16;28.40;32.20
45233;DHT22;30969;51.052;17.056;2022-07-29T11:53:34;28.40;32.10
45233;DHT22;30969;51.052;17.056;2022-07-29T11:58:40;28.50;32.20
45233;DHT22;30969;51.052;17.056;2022-07-29T12:03:43;28.50;31.90
45233;DHT22;30969;51.052;17.056;2022-07-29T12:08:47;28.60;31.70
45233;DHT22;30969;51.052;17.056;2022-07-29T12:13:52;28.60;32.00
45233;DHT22;30969;51.052;17.056;2022-07-29T12:18:57;28.60;31.80
45233;DHT22;30969;51.052;17.056;2022-07-29T12:24:01;28.70;31.70
45233;DHT22;30969;51.052;17.056;2022-07-29T12:29:16;28.70;31.80
45233;DHT22;30969;51.052;17.056;2022-07-29T12:34:35;28.90;31.90
45233;DHT22;30969;51.052;17.056;2022-07-29T12:39:39;29.00;31.80
45233;DHT22;30969;51.052;17.056;2022-07-29T12:44:46;29.10;32.80
45233;DHT22;30969;51.052;17.056;2022-07-29T12:49:50;29.10;31.40
45233;DHT22;30969;51.052;17.056;2022-07-29T12:54:54;29.20;31.20
45233;DHT22;30969;51.052;17.056;2022-07-29T13:00:08;29.20;31.50
45233;DHT22;30969;51.052;17.056;2022-07-29T13:05:12;29.30;31.50
45233;DHT22;30969;51.052;17.056;2022-07-29T13:10:17;29.40;30.90
45233;DHT22;30969;51.052;17.056;2022-07-29T13:15:27;29.50;31.30
45233;DHT22;30969;51.052;17.056;2022-07-29T13:20:30;29.60;30.90
45233;DHT22;30969;51.052;17.056;2022-07-29T13:25:34;29.70;31.00
45233;DHT22;30969;51.052;17.056;2022-07-29T13:30:44;29.80;30.80
45233;DHT22;30969;51.052;17.056;2022-07-29T13:35:47;30.00;30.80
45233;DHT22;30969;51.052;17.056;2022-07-29T13:40:50;30.10;30.70
45233;DHT22;30969;51.052;17.056;2022-07-29T13:45:55;30.10;30.20
45233;DHT22;30969;51.052;17.056;2022-07-29T13:50:59;30.10;30.20
45233;DHT22;30969;51.052;17.056;2022-07-29T13:56:03;30.20;30.30
45233;DHT22;30969;51.052;17.056;2022-07-29T14:01:09;30.30;30.00
45233;DHT22;30969;51.052;17.056;2022-07-29T14:06:12;30.40;29.90
45233;DHT22;30969;51.052;17.056;2022-07-29T14:11:19;30.30;29.80
45233;DHT22;30969;51.052;17.056;2022-07-29T14:16:24;30.30;30.00
45233;DHT22;30969;51.052;17.056;2022-07-29T14:21:27;30.40;30.00
45233;DHT22;30969;51.052;17.056;2022-07-29T14:26:33;30.40;29.90
45233;DHT22;30969;51.052;17.056;2022-07-29T14:31:38;30.40;30.00
45233;DHT22;30969;51.052;17.056;2022-07-29T14:36:42;30.60;30.00
45233;DHT22;30969;51.052;17.056;2022-07-29T14:41:46;30.80;29.90
45233;DHT22;30969;51.052;17.056;2022-07-29T14:46:51;31.00;29.40
45233;DHT22;30969;51.052;17.056;2022-07-29T14:51:54;31.20;29.30
45233;DHT22;30969;51.052;17.056;2022-07-29T14:56:58;31.30;29.20
45233;DHT22;30969;51.052;17.056;2022-07-29T15:02:03;31.40;28.80
45233;DHT22;30969;51.052;17.056;2022-07-29T15:07:07;31.40;28.60
45233;DHT22;30969;51.052;17.056;2022-07-29T15:12:11;31.40;28.90
45233;DHT22;30969;51.052;17.056;2022-07-29T15:17:16;31.50;29.40
45233;DHT22;30969;51.052;17.056;2022-07-29T15:22:20;31.60;28.40
45233;DHT22;30969;51.052;17.056;2022-07-29T15:27:23;31.60;28.50
45233;DHT22;30969;51.052;17.056;2022-07-29T15:32:28;31.50;28.30
45233;DHT22;30969;51.052;17.056;2022-07-29T15:37:32;31.60;29.20
45233;DHT22;30969;51.052;17.056;2022-07-29T15:42:50;31.80;28.80
45233;DHT22;30969;51.052;17.056;2022-07-29T15:47:55;31.90;28.20
45233;DHT22;30969;51.052;17.056;2022-07-29T15:52:58;32.00;28.10
45233;DHT22;30969;51.052;17.056;2022-07-29T15:58:02;31.90;27.80
45233;DHT22;30969;51.052;17.056;2022-07-29T16:03:07;31.80;27.90
45233;DHT22;30969;51.052;17.056;2022-07-29T16:08:10;31.60;28.00
45233;DHT22;30969;51.052;17.056;2022-07-29T16:13:14;31.50;28.60
45233;DHT22;30969;51.052;17.056;2022-07-29T16:18:21;31.20;30.10
45233;DHT22;30969;51.052;17.056;2022-07-29T16:23:31;30.90;31.10
45233;DHT22;30969;51.052;17.056;2022-07-29T16:28:35;30.70;31.70
45233;DHT22;30969;51.052;17.056;2022-07-29T16:33:40;30.60;32.10
45233;DHT22;30969;51.052;17.056;2022-07-29T16:38:56;30.50;32.30
45233;DHT22;30969;51.052;17.056;2022-07-29T16:44:01;30.50;33.70
45233;DHT22;30969;51.052;17.056;2022-07-29T16:49:06;30.40;32.90
45233;DHT22;30969;51.052;17.056;2022-07-29T16:54:10;30.40;32.90
45233;DHT22;30969;51.052;17.056;2022-07-29T16:59:13;30.30;33.00
45233;DHT22;30969;51.052;17.056;2022-07-29T17:04:18;30.20;33.00
45233;DHT22;30969;51.052;17.056;2022-07-29T17:09:24;30.10;32.90
45233;DHT22;30969;51.052;17.056;2022-07-29T17:14:28;30.10;33.00
45233;DHT22;30969;51.052;17.056;2022-07-29T17:19:34;30.00;33.10
45233;DHT22;30969;51.052;17.056;2022-07-29T17:24:38;30.00;33.20
45233;DHT22;30969;51.052;17.056;2022-07-29T17:29:42;29.90;33.30
45233;DHT22;30969;51.052;17.056;2022-07-29T17:34:47;29.80;33.60
45233;DHT22;30969;51.052;17.056;2022-07-29T17:39:51;29.70;33.90
45233;DHT22;30969;51.052;17.056;2022-07-29T17:45:01;29.50;33.90
45233;DHT22;30969;51.052;17.056;2022-07-29T17:50:06;29.40;34.40
45233;DHT22;30969;51.052;17.056;2022-07-29T17:55:10;29.20;34.70
45233;DHT22;30969;51.052;17.056;2022-07-29T18:00:15;29.00;35.20
45233;DHT22;30969;51.052;17.056;2022-07-29T18:05:20;28.90;35.60
45233;DHT22;30969;51.052;17.056;2022-07-29T18:10:24;28.70;36.00
45233;DHT22;30969;51.052;17.056;2022-07-29T18:15:28;28.60;36.20
45233;DHT22;30969;51.052;17.056;2022-07-29T18:20:33;28.40;36.60
45233;DHT22;30969;51.052;17.056;2022-07-29T18:25:37;28.30;36.80
45233;DHT22;30969;51.052;17.056;2022-07-29T18:30:41;28.20;36.90
45233;DHT22;30969;51.052;17.056;2022-07-29T18:35:48;28.20;37.60
45233;DHT22;30969;51.052;17.056;2022-07-29T18:40:52;28.10;37.50
45233;DHT22;30969;51.052;17.056;2022-07-29T18:45:56;28.00;37.90
45233;DHT22;30969;51.052;17.056;2022-07-29T18:51:00;27.90;38.10
45233;DHT22;30969;51.052;17.056;2022-07-29T18:56:10;27.80;38.30
45233;DHT22;30969;51.052;17.056;2022-07-29T19:01:14;27.70;38.40
45233;DHT22;30969;51.052;17.056;2022-07-29T19:06:19;27.70;38.30
45233;DHT22;30969;51.052;17.056;2022-07-29T19:11:26;27.60;38.80
45233;DHT22;30969;51.052;17.056;2022-07-29T19:16:30;27.50;39.20
45233;DHT22;30969;51.052;17.056;2022-07-29T19:21:35;27.40;39.40
45233;DHT22;30969;51.052;17.056;2022-07-29T19:26:39;27.30;40.30
45233;DHT22;30969;51.052;17.056;2022-07-29T19:31:47;27.20;40.40
45233;DHT22;30969;51.052;17.056;2022-07-29T19:36:52;27.20;40.40
45233;DHT22;30969;51.052;17.056;2022-07-29T19:41:56;27.10;40.80
45233;DHT22;30969;51.052;17.056;2022-07-29T19:47:04;27.00;40.90
45233;DHT22;30969;51.052;17.056;2022-07-29T19:52:09;27.00;41.50
45233;DHT22;30969;51.052;17.056;2022-07-29T19:57:13;26.90;41.80
45233;DHT22;30969;51.052;17.056;2022-07-29T20:02:17;26.80;41.80
45233;DHT22;30969;51.052;17.056;2022-07-29T20:07:22;26.80;42.20
45233;DHT22;30969;51.052;17.056;2022-07-29T20:12:25;26.70;41.80
45233;DHT22;30969;51.052;17.056;2022-07-29T20:17:29;26.70;42.50
45233;DHT22;30969;51.052;17.056;2022-07-29T20:22:37;26.60;43.00
45233;DHT22;30969;51.052;17.056;2022-07-29T20:27:41;26.50;43.20
45233;DHT22;30969;51.052;17.056;2022-07-29T20:32:44;26.40;43.10
45233;DHT22;30969;51.052;17.056;2022-07-29T20:37:49;26.40;43.70
45233;DHT22;30969;51.052;17.056;2022-07-29T20:42:58;26.40;43.80
45233;DHT22;30969;51.052;17.056;2022-07-29T20:48:01;26.30;43.80
45233;DHT22;30969;51.052;17.056;2022-07-29T20:53:07;26.20;44.50
45233;DHT22;30969;51.052;17.056;2022-07-29T20:58:10;26.20;44.70
45233;DHT22;30969;51.052;17.056;2022-07-29T21:03:14;26.10;44.50
45233;DHT22;30969;51.052;17.056;2022-07-29T21:08:20;26.10;45.10
45233;DHT22;30969;51.052;17.056;2022-07-29T21:13:24;26.10;45.10
45233;DHT22;30969;51.052;17.056;2022-07-29T21:18:28;26.00;45.00
45233;DHT22;30969;51.052;17.056;2022-07-29T21:23:35;26.00;45.60
45233;DHT22;30969;51.052;17.056;2022-07-29T21:28:39;25.90;45.30
45233;DHT22;30969;51.052;17.056;2022-07-29T21:33:44;25.80;45.40
45233;DHT22;30969;51.052;17.056;2022-07-29T21:38:49;25.80;45.90
45233;DHT22;30969;51.052;17.056;2022-07-29T21:43:52;25.80;45.60
45233;DHT22;30969;51.052;17.056;2022-07-29T21:49:00;25.70;46.40
45233;DHT22;30969;51.052;17.056;2022-07-29T21:54:05;25.60;46.20
45233;DHT22;30969;51.052;17.056;2022-07-29T21:59:09;25.60;46.70
45233;DHT22;30969;51.052;17.056;2022-07-29T22:04:14;25.50;46.40
45233;DHT22;30969;51.052;17.056;2022-07-29T22:09:18;25.40;46.30
45233;DHT22;30969;51.052;17.056;2022-07-29T22:14:22;25.40;46.90
45233;DHT22;30969;51.052;17.056;2022-07-29T22:19:26;25.30;46.50
45233;DHT22;30969;51.052;17.056;2022-07-29T22:24:32;25.20;46.70
45233;DHT22;30969;51.052;17.056;2022-07-29T22:29:36;25.20;46.90
45233;DHT22;30969;51.052;17.056;2022-07-29T22:34:40;25.00;46.70
45233;DHT22;30969;51.052;17.056;2022-07-29T22:39:44;25.00;46.70
45233;DHT22;30969;51.052;17.056;2022-07-29T22:44:48;24.90;46.50
45233;DHT22;30969;51.052;17.056;2022-07-29T22:49:51;24.80;46.40
45233;DHT22;30969;51.052;17.056;2022-07-29T22:54:56;24.70;46.60
45233;DHT22;30969;51.052;17.056;2022-07-29T22:59:59;24.60;46.50
45233;DHT22;30969;51.052;17.056;2022-07-29T23:05:04;24.50;46.40
45233;DHT22;30969;51.052;17.056;2022-07-29T23:10:09;24.30;46.50
45233;DHT22;30969;51.052;17.056;2022-07-29T23:15:13;24.20;46.50
45233;DHT22;30969;51.052;17.056;2022-07-29T23:20:19;24.10;46.40
45233;DHT22;30969;51.052;17.056;2022-07-29T23:25:23;24.00;46.70
45233;DHT22;30969;51.052;17.056;2022-07-29T23:30:27;24.00;46.90
45233;DHT22;30969;51.052;17.056;2022-07-29T23:35:31;23.90;46.60
45233;DHT22;30969;51.052;17.056;2022-07-29T23:40:35;23.90;46.70
45233;DHT22;30969;51.052;17.056;2022-07-29T23:45:39;23.80;46.80
45233;DHT22;30969;51.052;17.056;2022-07-29T23:50:49;23.80;47.00
45233;DHT22;30969;51.052;17.056;2022-07-29T23:55:55;23.70;46.80
